Arlington, New Jersey
Current Conditions -  °F | °C
As of 2:51 AM on Wednesday 26 Nov 2014 (Local Time) from KEWR Reporting Station
Overcast Overcast  
Wind Chill: 46°   Ceiling: 11000
Heat Index: 48°   Visibility: 10mi
Dew Point: 31°   Wind: 5mph
Humidity: 52%   Direction: 310°NW
Pressure: 30.2"   Gusts: NA
Location:  40.7563°N, 74.1217°W
Report Text: KEWR 260751Z 31004KT 10SM BKN110 OVC150 09/M01 A3020 RMK AO2 SLP225 T00891006 $
Loading
Personal Weather Stations






























Interactive Weather Map New forecast layout! Learn more

10-Day Weather Forecast

Advertisements
Track Severe Weather on mobile